Terminal Aerodrome Forecast
Issued by NWS

Home | Current Version | Previous Version | Text Only | Print | Product List | Glossary On
Versions: 1 2 3 4 5 6 7 8 9 10 11 12 13 14 15 16 17 18 19 20 21 22 23
000
FTUS43 KILX 270500 CCA
TAFCMI
TAF COR
KCMI 270539Z 2706/2806 20004KT 3SM BR OVC005
     FM271000 33006KT 4SM BR OVC006
     FM271500 36008G15KT 6SM BR OVC007
     FM272100 02006KT P6SM BKN012
     FM280400 VRB03KT P6SM BKN015=

USA.gov is the U.S. government's official web portal to all federal, state and local government web resources and services.